createdAt,value
2023-05-05T00:02:24.575Z,67.62
2023-05-05T00:05:27.098Z,67.16
2023-05-05T00:08:29.717Z,65.27
2023-05-05T00:11:32.209Z,65.10
2023-05-05T00:14:34.657Z,64.62
2023-05-05T00:17:37.240Z,64.23
2023-05-05T00:20:39.834Z,64.61
2023-05-05T00:23:42.283Z,64.45
2023-05-05T00:26:44.782Z,63.79
2023-05-05T00:29:47.426Z,63.43
2023-05-05T00:32:51.077Z,63.80
2023-05-05T00:35:53.461Z,62.91
2023-05-05T00:38:56.534Z,62.99
2023-05-05T00:41:59.454Z,62.05
2023-05-05T00:45:02.246Z,63.82
2023-05-05T00:48:05.704Z,63.04
2023-05-05T00:51:09.667Z,65.08
2023-05-05T00:54:12.184Z,67.71
2023-05-05T00:57:14.685Z,68.12
2023-05-05T01:00:18.074Z,68.94
2023-05-05T01:03:21.005Z,70.49
2023-05-05T01:06:35.226Z,69.97
2023-05-05T01:10:15.645Z,71.88
2023-05-05T01:13:42.696Z,72.55
2023-05-05T01:17:04.509Z,73.92
2023-05-05T01:20:22.418Z,73.40
2023-05-05T01:23:52.542Z,73.55
2023-05-05T01:27:12.948Z,73.50
2023-05-05T01:30:46.301Z,74.24
2023-05-05T01:33:55.091Z,73.96
2023-05-05T01:37:26.968Z,74.67
2023-05-05T01:40:40.505Z,75.16
2023-05-05T01:43:46.131Z,74.45
2023-05-05T01:46:52.012Z,74.88
2023-05-05T01:49:54.802Z,75.83
2023-05-05T01:52:57.795Z,76.60
2023-05-05T01:56:02.153Z,75.75
2023-05-05T01:59:05.586Z,75.56
2023-05-05T02:02:11.259Z,75.85
2023-05-05T02:05:15.549Z,75.97
2023-05-05T02:08:19.258Z,76.50
2023-05-05T02:11:21.889Z,75.27
2023-05-05T02:14:27.114Z,74.49
2023-05-05T02:17:30.513Z,73.62
2023-05-05T02:20:33.990Z,74.20
2023-05-05T02:23:36.526Z,75.25
2023-05-05T02:26:40.715Z,75.16
2023-05-05T02:29:48.992Z,75.18
2023-05-05T02:33:00.052Z,75.34
2023-05-05T02:36:12.411Z,75.87
2023-05-05T02:39:51.609Z,78.33
2023-05-05T02:42:57.425Z,77.98
2023-05-05T02:46:04.595Z,78.02
2023-05-05T02:49:08.603Z,78.65
2023-05-05T02:52:12.976Z,78.32
2023-05-05T02:55:17.108Z,78.80
2023-05-05T02:58:42.846Z,79.02
2023-05-05T03:02:11.985Z,79.61
2023-05-05T03:05:25.261Z,80.19
2023-05-05T03:08:40.980Z,80.37
2023-05-05T03:11:53.310Z,79.77
2023-05-05T03:14:58.543Z,80.71
2023-05-05T03:18:04.019Z,79.39
2023-05-05T03:21:10.225Z,79.33
2023-05-05T03:24:17.341Z,80.73
2023-05-05T03:27:24.887Z,80.08
2023-05-05T03:30:27.529Z,80.10
2023-05-05T03:33:29.932Z,80.27
2023-05-05T03:36:35.888Z,80.65
2023-05-05T03:39:38.899Z,81.25
2023-05-05T03:42:42.933Z,81.41
2023-05-05T03:45:45.437Z,81.28
2023-05-05T03:48:48.760Z,81.48
2023-05-05T03:51:51.437Z,80.57
2023-05-05T03:54:54.661Z,80.52
2023-05-05T03:57:57.084Z,81.66
2023-05-05T04:00:59.586Z,81.58
2023-05-05T04:04:02.517Z,81.59
2023-05-05T04:07:04.976Z,81.31
2023-05-05T04:10:08.650Z,80.66
2023-05-05T04:13:11.975Z,81.19
2023-05-05T04:16:14.916Z,81.04
2023-05-05T04:19:18.018Z,80.82
2023-05-05T04:22:21.211Z,80.83
2023-05-05T04:25:23.709Z,80.56
2023-05-05T04:28:26.341Z,79.22
2023-05-05T04:31:29.065Z,79.09
2023-05-05T04:34:31.491Z,78.71
2023-05-05T04:37:33.872Z,79.33
2023-05-05T04:40:40.138Z,78.79
2023-05-05T04:43:43.808Z,78.78
2023-05-05T04:46:46.280Z,79.04
2023-05-05T04:49:49.762Z,78.02
2023-05-05T04:52:52.882Z,77.40
2023-05-05T04:55:55.772Z,77.47
2023-05-05T04:58:58.303Z,76.24
2023-05-05T05:02:01.264Z,77.26
2023-05-05T05:05:04.105Z,76.69
2023-05-05T05:08:06.540Z,76.00
2023-05-05T05:11:09.048Z,76.10
2023-05-05T05:14:11.497Z,75.11
2023-05-05T05:17:13.907Z,75.29
2023-05-05T05:20:17.340Z,74.31
2023-05-05T05:23:19.765Z,74.51
2023-05-05T05:26:23.290Z,73.33
2023-05-05T05:29:27.136Z,71.68
2023-05-05T05:32:30.358Z,71.58
2023-05-05T05:35:33.122Z,70.70
2023-05-05T05:38:35.798Z,68.44
2023-05-05T05:41:39.738Z,66.76
2023-05-05T05:44:42.777Z,62.39
2023-05-05T05:47:45.299Z,60.37
2023-05-05T05:50:47.996Z,57.07
2023-05-05T05:53:51.884Z,54.83
2023-05-05T05:56:55.082Z,51.53
2023-05-05T05:59:59.244Z,49.71
2023-05-05T06:03:03.120Z,47.51
2023-05-05T06:06:09.030Z,46.28
2023-05-05T06:09:11.496Z,46.04
2023-05-05T06:12:14.100Z,44.14
2023-05-05T06:15:16.584Z,42.82
2023-05-05T06:18:19.272Z,40.83
2023-05-05T06:21:21.776Z,41.59
2023-05-05T06:24:24.279Z,39.87
2023-05-05T06:27:26.640Z,39.97
2023-05-05T06:30:29.198Z,38.18
2023-05-05T06:33:31.638Z,38.43
2023-05-05T06:36:34.057Z,38.97
2023-05-05T06:39:36.496Z,37.02
2023-05-05T06:42:39.297Z,36.38
2023-05-05T06:45:44.813Z,35.86
2023-05-05T06:48:47.593Z,33.71
2023-05-05T06:51:50.093Z,33.69
2023-05-05T06:54:52.486Z,33.35
2023-05-05T06:57:54.963Z,33.63
2023-05-05T07:00:57.404Z,33.35
2023-05-05T07:04:00.343Z,34.09
2023-05-05T07:07:02.945Z,32.68
2023-05-05T07:10:06.276Z,32.97
2023-05-05T07:13:09.051Z,32.09
2023-05-05T07:16:11.543Z,31.92
2023-05-05T07:19:13.983Z,32.75
2023-05-05T07:22:16.572Z,32.86
2023-05-05T07:25:19.139Z,33.12
2023-05-05T07:28:22.447Z,34.20
2023-05-05T07:31:26.409Z,34.27
2023-05-05T07:34:29.062Z,34.64
2023-05-05T07:37:31.599Z,32.45
2023-05-05T07:40:36.913Z,31.54
2023-05-05T07:43:42.820Z,30.20
2023-05-05T07:46:46.981Z,29.76
2023-05-05T07:49:49.397Z,29.63
2023-05-05T07:52:59.371Z,29.70
2023-05-05T07:56:12.910Z,29.63
2023-05-05T07:59:15.570Z,30.69
2023-05-05T08:02:18.282Z,29.55
2023-05-05T08:05:20.799Z,28.76
2023-05-05T08:08:25.066Z,30.60
2023-05-05T08:11:29.613Z,27.95
2023-05-05T08:14:32.872Z,28.49
2023-05-05T08:18:04.398Z,28.31
2023-05-05T08:21:08.837Z,29.52
2023-05-05T08:24:11.309Z,29.10
2023-05-05T08:27:14.176Z,28.17
2023-05-05T08:30:20.797Z,26.18
2023-05-05T08:33:23.168Z,26.42
2023-05-05T08:36:25.639Z,26.51
2023-05-05T08:39:28.384Z,29.33
2023-05-05T08:42:37.736Z,27.45
2023-05-05T08:45:42.112Z,26.36
2023-05-05T08:48:45.935Z,27.05
2023-05-05T08:51:49.839Z,26.02
2023-05-05T08:55:00.280Z,26.15
2023-05-05T08:58:04.295Z,26.35
2023-05-05T09:01:07.538Z,26.42
2023-05-05T09:04:11.041Z,28.40
2023-05-05T09:07:13.792Z,26.17
2023-05-05T09:10:16.411Z,24.31
2023-05-05T09:13:18.874Z,25.80
2023-05-05T09:16:22.537Z,23.38
2023-05-05T09:19:25.149Z,24.63
2023-05-05T09:22:42.206Z,23.53
2023-05-05T09:26:02.430Z,25.45
2023-05-05T09:29:05.755Z,26.70
2023-05-05T09:32:09.029Z,26.32
2023-05-05T09:35:11.717Z,25.62
2023-05-05T09:38:14.200Z,26.58
2023-05-05T09:41:36.760Z,25.23
2023-05-05T09:44:40.684Z,25.26
2023-05-05T09:47:43.090Z,25.06
2023-05-05T09:50:45.776Z,22.61
2023-05-05T09:53:48.283Z,23.61
2023-05-05T09:56:52.334Z,22.68
2023-05-05T09:59:59.723Z,26.09
2023-05-05T10:03:03.120Z,25.28
2023-05-05T10:06:07.794Z,25.04
2023-05-05T10:09:10.876Z,23.72
2023-05-05T10:12:13.462Z,25.42
2023-05-05T10:15:16.277Z,26.71
2023-05-05T10:18:28.770Z,24.44
2023-05-05T10:21:34.263Z,22.87
2023-05-05T10:24:47.176Z,22.71
2023-05-05T10:27:55.575Z,22.65
2023-05-05T10:31:00.587Z,21.61
2023-05-05T10:34:10.461Z,21.82
2023-05-05T10:37:13.207Z,21.91
2023-05-05T10:40:17.753Z,19.44
2023-05-05T10:43:20.944Z,21.58
2023-05-05T10:46:25.604Z,21.87
2023-05-05T10:49:41.138Z,22.76
2023-05-05T10:53:17.389Z,22.00
2023-05-05T10:56:33.819Z,21.69
2023-05-05T10:59:39.058Z,22.61
2023-05-05T11:02:42.029Z,22.68
2023-05-05T11:06:05.613Z,20.90
2023-05-05T11:09:27.866Z,20.74
2023-05-05T11:12:32.693Z,21.71
2023-05-05T11:15:37.694Z,19.98
2023-05-05T11:18:44.418Z,18.97
2023-05-05T11:22:02.516Z,20.74
2023-05-05T11:25:37.580Z,20.17
2023-05-05T11:28:56.752Z,19.02
2023-05-05T11:32:15.880Z,18.97
2023-05-05T11:35:18.764Z,19.28
2023-05-05T11:38:26.966Z,18.43
2023-05-05T11:41:32.186Z,19.89
2023-05-05T11:44:35.746Z,20.33
2023-05-05T11:47:38.218Z,17.51
2023-05-05T11:50:40.849Z,17.19
2023-05-05T11:53:44.943Z,16.60
2023-05-05T11:56:51.231Z,15.83
2023-05-05T11:59:58.075Z,19.26
2023-05-05T12:03:00.969Z,19.62
2023-05-05T12:06:04.654Z,18.83
2023-05-05T12:09:15.457Z,20.50
2023-05-05T12:12:20.166Z,21.83
2023-05-05T12:15:32.380Z,20.32
2023-05-05T12:18:34.715Z,19.29
2023-05-05T12:21:38.316Z,21.64
2023-05-05T12:24:41.114Z,22.10
2023-05-05T12:27:52.067Z,21.46
2023-05-05T12:30:58.973Z,22.86
2023-05-05T12:34:06.112Z,26.12
2023-05-05T12:37:08.542Z,25.33
2023-05-05T12:40:44.876Z,25.02
2023-05-05T12:43:48.036Z,23.74
2023-05-05T12:46:52.945Z,25.38
2023-05-05T12:49:56.090Z,27.34
2023-05-05T12:52:58.580Z,26.49
2023-05-05T12:56:00.990Z,26.55
2023-05-05T12:59:07.718Z,25.94
2023-05-05T13:02:10.207Z,28.86
2023-05-05T13:05:12.654Z,29.28
2023-05-05T13:08:15.134Z,27.25
2023-05-05T13:11:18.599Z,23.80
2023-05-05T13:14:22.322Z,25.48
2023-05-05T13:17:25.007Z,25.08
2023-05-05T13:20:27.731Z,27.22
2023-05-05T13:23:30.703Z,25.12
2023-05-05T13:26:33.259Z,26.88
2023-05-05T13:29:35.865Z,26.02
2023-05-05T13:32:38.334Z,25.02
2023-05-05T13:35:41.316Z,25.37
2023-05-05T13:38:43.892Z,24.85
2023-05-05T13:41:46.598Z,25.35
2023-05-05T13:44:49.105Z,26.53
2023-05-05T13:47:51.663Z,27.49
2023-05-05T13:50:54.027Z,26.60
2023-05-05T13:53:57.009Z,28.57
2023-05-05T13:57:00.055Z,24.54
2023-05-05T14:00:04.130Z,27.44
2023-05-05T14:03:09.857Z,25.57
2023-05-05T14:06:12.275Z,25.63
2023-05-05T14:09:14.887Z,24.54
2023-05-05T14:12:17.327Z,29.58
2023-05-05T14:15:19.766Z,25.95
2023-05-05T14:18:22.794Z,25.93
2023-05-05T14:21:25.245Z,25.16
2023-05-05T14:24:27.756Z,24.73
2023-05-05T14:27:30.225Z,24.59
2023-05-05T14:30:32.743Z,26.71
2023-05-05T14:33:35.243Z,26.45
2023-05-05T14:36:37.620Z,26.10
2023-05-05T14:39:40.163Z,29.80
2023-05-05T14:42:42.856Z,33.56
2023-05-05T14:45:45.397Z,31.49
2023-05-05T14:48:48.406Z,32.52
2023-05-05T14:51:50.870Z,32.05
2023-05-05T14:54:53.533Z,31.44
2023-05-05T14:57:56.107Z,31.31
2023-05-05T15:00:58.987Z,30.37
2023-05-05T15:04:01.533Z,30.90
2023-05-05T15:07:04.360Z,29.28
2023-05-05T15:10:07.665Z,29.87
2023-05-05T15:13:10.152Z,32.37
2023-05-05T15:16:12.664Z,34.86
2023-05-05T15:19:15.120Z,34.51
2023-05-05T15:22:17.818Z,30.25
2023-05-05T15:25:20.664Z,27.47
2023-05-05T15:28:24.265Z,27.89
2023-05-05T15:31:26.732Z,29.42
2023-05-05T15:34:29.291Z,27.62
2023-05-05T15:37:31.850Z,27.36
2023-05-05T15:40:34.415Z,28.79
2023-05-05T15:43:36.834Z,28.56
2023-05-05T15:46:39.805Z,29.34
2023-05-05T15:49:42.375Z,33.58
2023-05-05T15:52:44.791Z,35.57
2023-05-05T15:55:47.270Z,38.13
2023-05-05T15:58:55.621Z,37.67
2023-05-05T16:02:03.123Z,39.14
2023-05-05T16:05:10.185Z,39.04
2023-05-05T16:08:15.024Z,38.86
2023-05-05T16:11:17.542Z,39.70
2023-05-05T16:14:20.328Z,40.18
2023-05-05T16:17:22.902Z,40.15
2023-05-05T16:20:25.345Z,40.75
2023-05-05T16:23:27.744Z,42.10
2023-05-05T16:26:30.177Z,41.38
2023-05-05T16:29:32.599Z,42.87
2023-05-05T16:32:35.032Z,42.96
2023-05-05T16:35:37.474Z,44.17
2023-05-05T16:38:40.564Z,43.82
2023-05-05T16:42:03.877Z,46.33
2023-05-05T16:45:09.435Z,46.22
2023-05-05T16:48:13.781Z,48.42
2023-05-05T16:51:16.226Z,48.94
2023-05-05T16:54:18.611Z,48.81
2023-05-05T16:57:23.948Z,49.97
2023-05-05T17:00:26.468Z,47.85
2023-05-05T17:03:29.083Z,46.30
2023-05-05T17:06:34.286Z,46.31
2023-05-05T17:09:36.816Z,46.79
2023-05-05T17:12:39.306Z,47.18
2023-05-05T17:15:42.000Z,47.49
2023-05-05T17:18:44.521Z,51.40
2023-05-05T17:21:47.079Z,51.74
2023-05-05T17:24:49.494Z,54.38
2023-05-05T17:27:52.838Z,53.77
2023-05-05T17:30:55.334Z,53.49
2023-05-05T17:33:57.830Z,56.45
2023-05-05T17:37:00.327Z,58.05
2023-05-05T17:40:03.353Z,54.52
2023-05-05T17:43:05.754Z,55.80
2023-05-05T17:46:08.204Z,56.43
2023-05-05T17:49:10.586Z,55.58
2023-05-05T17:52:13.122Z,57.55
2023-05-05T17:55:15.736Z,57.54
2023-05-05T17:58:18.216Z,55.66
2023-05-05T18:01:25.212Z,58.09
2023-05-05T18:04:28.537Z,55.00
2023-05-05T18:07:30.924Z,60.60
2023-05-05T18:10:33.352Z,55.71
2023-05-05T18:13:35.992Z,57.75
2023-05-05T18:16:38.467Z,58.63
2023-05-05T18:19:46.153Z,59.41
2023-05-05T18:22:50.447Z,59.38
2023-05-05T18:25:52.841Z,58.84
2023-05-05T18:28:55.198Z,58.52
2023-05-05T18:31:57.664Z,59.52
2023-05-05T18:35:00.097Z,59.68
2023-05-05T18:38:03.364Z,59.26
2023-05-05T18:41:05.799Z,61.48
2023-05-05T18:44:08.362Z,62.29
2023-05-05T18:47:10.810Z,63.03
2023-05-05T18:50:13.616Z,63.21
2023-05-05T18:53:17.721Z,64.38
2023-05-05T18:56:21.536Z,64.53
2023-05-05T18:59:23.995Z,65.45
2023-05-05T19:02:26.980Z,63.26
2023-05-05T19:05:29.729Z,64.52
2023-05-05T19:08:32.158Z,66.26
2023-05-05T19:11:34.633Z,66.32
2023-05-05T19:14:37.107Z,67.95
2023-05-05T19:17:39.969Z,66.22
2023-05-05T19:20:43.596Z,66.30
2023-05-05T19:23:46.188Z,65.59
2023-05-05T19:26:48.750Z,66.12
2023-05-05T19:29:52.644Z,66.65
2023-05-05T19:32:55.617Z,67.31
2023-05-05T19:35:58.187Z,68.21
2023-05-05T19:39:01.930Z,68.29
2023-05-05T19:42:04.965Z,68.71
2023-05-05T19:45:07.934Z,69.01
2023-05-05T19:48:10.562Z,68.06
2023-05-05T19:51:13.199Z,67.46
2023-05-05T19:54:16.281Z,68.06
2023-05-05T19:57:18.858Z,67.99
2023-05-05T20:00:21.653Z,70.39
2023-05-05T20:03:24.108Z,71.57
2023-05-05T20:06:27.111Z,72.34
2023-05-05T20:09:29.809Z,69.42
2023-05-05T20:12:32.403Z,70.40
2023-05-05T20:15:34.984Z,71.61
2023-05-05T20:18:37.520Z,71.58
2023-05-05T20:21:40.218Z,70.96
2023-05-05T20:24:42.669Z,71.60
2023-05-05T20:27:45.829Z,71.31
2023-05-05T20:30:48.347Z,70.18
2023-05-05T20:33:51.088Z,71.23
2023-05-05T20:36:54.371Z,71.90
2023-05-05T20:39:58.236Z,72.50
2023-05-05T20:43:00.686Z,72.73
2023-05-05T20:46:03.274Z,73.24
2023-05-05T20:49:06.072Z,72.99
2023-05-05T20:52:09.293Z,74.09
2023-05-05T20:55:11.706Z,74.14
2023-05-05T20:58:14.124Z,73.42
2023-05-05T21:01:16.978Z,73.70
2023-05-05T21:04:19.610Z,74.67
2023-05-05T21:07:21.969Z,74.45
2023-05-05T21:10:24.434Z,75.89
2023-05-05T21:13:27.589Z,74.58
2023-05-05T21:16:29.970Z,73.44
2023-05-05T21:19:32.559Z,74.19
2023-05-05T21:22:35.234Z,73.84
2023-05-05T21:25:37.667Z,74.06
2023-05-05T21:28:40.093Z,74.89
2023-05-05T21:31:42.500Z,74.77
2023-05-05T21:34:45.438Z,74.33
2023-05-05T21:37:48.878Z,74.32
2023-05-05T21:40:58.925Z,75.34
2023-05-05T21:44:01.348Z,75.23
2023-05-05T21:47:05.433Z,75.61
2023-05-05T21:50:09.716Z,75.79
2023-05-05T21:53:12.279Z,77.01
2023-05-05T21:56:14.670Z,77.17
2023-05-05T21:59:17.430Z,76.48
2023-05-05T22:02:20.128Z,76.37
2023-05-05T22:05:23.152Z,76.27
2023-05-05T22:08:25.514Z,77.11
2023-05-05T22:11:28.227Z,77.63
2023-05-05T22:14:30.634Z,77.00
2023-05-05T22:17:33.023Z,76.19
2023-05-05T22:20:35.495Z,77.00
2023-05-05T22:23:39.137Z,77.57
2023-05-05T22:26:43.349Z,78.71
2023-05-05T22:29:46.627Z,78.62
2023-05-05T22:32:49.174Z,79.65
2023-05-05T22:35:52.092Z,79.31
2023-05-05T22:38:54.952Z,79.53
2023-05-05T22:41:58.111Z,79.20
2023-05-05T22:45:01.099Z,79.25
2023-05-05T22:48:03.868Z,79.42
2023-05-05T22:51:06.562Z,79.39
2023-05-05T22:54:09.323Z,79.27
2023-05-05T22:57:11.848Z,79.86
2023-05-05T23:00:14.675Z,78.58
2023-05-05T23:03:17.127Z,78.98
2023-05-05T23:06:19.639Z,79.25
2023-05-05T23:09:22.106Z,78.75
2023-05-05T23:12:24.591Z,79.74
2023-05-05T23:15:27.518Z,78.89
2023-05-05T23:18:29.907Z,79.66
2023-05-05T23:21:36.259Z,79.89
2023-05-05T23:24:44.686Z,80.07
2023-05-05T23:27:47.984Z,79.42
2023-05-05T23:30:50.528Z,79.91
2023-05-05T23:33:53.005Z,80.37
2023-05-05T23:36:55.941Z,80.32
2023-05-05T23:39:58.376Z,80.27
2023-05-05T23:43:01.106Z,79.95
2023-05-05T23:46:03.583Z,79.74
2023-05-05T23:49:06.226Z,80.76
2023-05-05T23:52:08.745Z,79.95
2023-05-05T23:55:11.606Z,80.40
2023-05-05T23:58:14.159Z,80.80
